createdAt,value
2023-04-18T00:00:14.159Z,7.20
2023-04-18T00:02:41.748Z,7.10
2023-04-18T00:05:09.475Z,7.10
2023-04-18T00:07:36.798Z,7.10
2023-04-18T00:10:06.094Z,7.00
2023-04-18T00:12:34.663Z,7.10
2023-04-18T00:15:03.074Z,7.00
2023-04-18T00:17:32.157Z,7.00
2023-04-18T00:20:02.624Z,7.00
2023-04-18T00:22:29.969Z,7.00
2023-04-18T00:24:57.420Z,7.00
2023-04-18T00:27:24.682Z,7.00
2023-04-18T00:29:51.935Z,7.00
2023-04-18T00:32:19.984Z,7.10
2023-04-18T00:34:47.148Z,7.10
2023-04-18T00:37:14.312Z,7.10
2023-04-18T00:39:41.627Z,7.10
2023-04-18T00:42:09.017Z,7.10
2023-04-18T00:44:36.201Z,7.10
2023-04-18T00:47:03.472Z,7.10
2023-04-18T00:49:30.897Z,7.10
2023-04-18T00:51:59.334Z,7.10
2023-04-18T00:54:27.621Z,7.10
2023-04-18T00:56:54.954Z,7.00
2023-04-18T00:59:22.581Z,7.00
2023-04-18T01:01:54.161Z,7.00
2023-04-18T01:04:21.707Z,7.00
2023-04-18T01:06:49.370Z,6.90
2023-04-18T01:09:17.249Z,7.00
2023-04-18T01:11:44.620Z,7.00
2023-04-18T01:14:11.920Z,6.90
2023-04-18T01:16:39.878Z,6.90
2023-04-18T01:19:07.343Z,6.90
2023-04-18T01:21:37.588Z,6.90
2023-04-18T01:24:13.134Z,6.90
2023-04-18T01:26:41.526Z,6.90
2023-04-18T01:29:09.188Z,6.80
2023-04-18T01:31:48.788Z,6.80
2023-04-18T01:34:18.099Z,6.70
2023-04-18T01:36:46.259Z,6.70
2023-04-18T01:39:14.354Z,6.70
2023-04-18T01:41:42.617Z,6.60
2023-04-18T01:44:10.079Z,6.60
2023-04-18T01:46:37.344Z,6.50
2023-04-18T01:49:05.482Z,6.50
2023-04-18T01:51:32.843Z,6.50
2023-04-18T01:54:00.134Z,6.40
2023-04-18T01:56:27.301Z,6.40
2023-04-18T01:58:54.945Z,6.30
2023-04-18T02:01:22.175Z,6.30
2023-04-18T02:03:49.610Z,6.30
2023-04-18T02:06:16.959Z,6.20
2023-04-18T02:08:44.404Z,6.20
2023-04-18T02:11:11.877Z,6.20
2023-04-18T02:13:39.021Z,6.20
2023-04-18T02:16:17.374Z,6.20
2023-04-18T02:18:49.739Z,6.20
2023-04-18T02:21:17.231Z,6.10
2023-04-18T02:23:44.669Z,6.10
2023-04-18T02:26:11.963Z,6.00
2023-04-18T02:28:39.452Z,6.00
2023-04-18T02:31:14.733Z,6.00
2023-04-18T02:33:43.528Z,6.00
2023-04-18T02:36:12.357Z,5.90
2023-04-18T02:38:39.654Z,5.90
2023-04-18T02:41:07.115Z,5.90
2023-04-18T02:43:34.440Z,5.90
2023-04-18T02:46:02.219Z,5.90
2023-04-18T02:48:29.477Z,5.90
2023-04-18T02:51:05.737Z,5.90
2023-04-18T02:53:33.543Z,5.90
2023-04-18T02:56:01.211Z,5.80
2023-04-18T02:58:28.861Z,5.80
2023-04-18T03:00:56.940Z,5.80
2023-04-18T03:03:24.287Z,5.70
2023-04-18T03:05:54.185Z,5.70
2023-04-18T03:08:21.638Z,5.60
2023-04-18T03:10:49.299Z,5.60
2023-04-18T03:13:17.328Z,5.60
2023-04-18T03:15:45.811Z,5.60
2023-04-18T03:18:13.048Z,5.60
2023-04-18T03:20:41.277Z,5.60
2023-04-18T03:23:08.848Z,5.60
2023-04-18T03:25:36.152Z,5.60
2023-04-18T03:28:03.427Z,5.60
2023-04-18T03:30:30.778Z,5.50
2023-04-18T03:32:59.002Z,5.50
2023-04-18T03:35:26.369Z,5.50
2023-04-18T03:37:53.733Z,5.40
2023-04-18T03:40:21.823Z,5.40
2023-04-18T03:42:50.304Z,5.40
2023-04-18T03:45:17.664Z,5.40
2023-04-18T03:47:45.056Z,5.40
2023-04-18T03:50:12.346Z,5.30
2023-04-18T03:52:39.662Z,5.30
2023-04-18T03:55:11.950Z,5.30
2023-04-18T03:57:40.833Z,5.30
2023-04-18T04:00:09.395Z,5.30
2023-04-18T04:02:37.370Z,5.30
2023-04-18T04:05:05.529Z,5.30
2023-04-18T04:07:34.425Z,5.30
2023-04-18T04:10:02.848Z,5.30
2023-04-18T04:12:31.498Z,5.30
2023-04-18T04:14:58.878Z,5.20
2023-04-18T04:17:26.428Z,5.20
2023-04-18T04:19:56.119Z,5.20
2023-04-18T04:22:25.233Z,5.20
2023-04-18T04:24:52.598Z,5.20
2023-04-18T04:27:24.913Z,5.10
2023-04-18T04:30:26.653Z,5.10
2023-04-18T04:32:54.913Z,5.10
2023-04-18T04:35:22.470Z,5.10
2023-04-18T04:37:49.645Z,5.10
2023-04-18T04:40:18.028Z,5.10
2023-04-18T04:42:46.148Z,5.00
2023-04-18T04:45:13.557Z,5.10
2023-04-18T04:47:40.862Z,5.10
2023-04-18T04:50:15.560Z,5.10
2023-04-18T04:52:45.840Z,5.10
2023-04-18T04:55:13.277Z,5.10
2023-04-18T04:57:40.663Z,5.10
2023-04-18T05:00:09.460Z,5.10
2023-04-18T05:02:36.985Z,5.10
2023-04-18T05:05:04.628Z,5.20
2023-04-18T05:07:34.389Z,5.20
2023-04-18T05:10:01.704Z,5.20
2023-04-18T05:12:28.917Z,5.30
2023-04-18T05:14:56.377Z,5.30
2023-04-18T05:17:26.943Z,5.30
2023-04-18T05:19:54.301Z,5.40
2023-04-18T05:22:21.936Z,5.50
2023-04-18T05:24:49.234Z,5.50
2023-04-18T05:27:18.162Z,5.60
2023-04-18T05:29:58.431Z,5.60
2023-04-18T05:32:26.282Z,5.70
2023-04-18T05:34:57.318Z,5.70
2023-04-18T05:37:24.817Z,5.80
2023-04-18T05:39:51.958Z,5.80
2023-04-18T05:42:22.244Z,5.80
2023-04-18T05:44:51.672Z,5.90
2023-04-18T05:47:19.159Z,5.90
2023-04-18T05:49:46.400Z,6.00
2023-04-18T05:52:13.734Z,6.10
2023-04-18T05:54:41.625Z,6.10
2023-04-18T05:57:09.125Z,6.20
2023-04-18T05:59:38.691Z,6.30
2023-04-18T06:02:17.209Z,6.30
2023-04-18T06:04:45.588Z,6.30
2023-04-18T06:07:23.777Z,6.20
2023-04-18T06:09:51.571Z,6.20
2023-04-18T06:12:19.113Z,6.20
2023-04-18T06:14:46.375Z,6.30
2023-04-18T06:17:17.013Z,6.30
2023-04-18T06:19:44.222Z,6.30
2023-04-18T06:22:11.350Z,6.40
2023-04-18T06:24:38.809Z,6.40
2023-04-18T06:27:06.423Z,6.50
2023-04-18T06:29:35.607Z,6.60
2023-04-18T06:32:03.494Z,6.70
2023-04-18T06:34:30.655Z,6.70
2023-04-18T06:36:57.954Z,6.70
2023-04-18T06:39:25.328Z,6.70
2023-04-18T06:42:01.535Z,6.70
2023-04-18T06:44:28.822Z,6.80
2023-04-18T06:46:59.919Z,6.90
2023-04-18T06:49:49.589Z,6.90
2023-04-18T06:52:19.867Z,7.00
2023-04-18T06:54:54.946Z,7.00
2023-04-18T06:57:22.290Z,7.10
2023-04-18T06:59:49.522Z,7.10
2023-04-18T07:02:16.687Z,7.20
2023-04-18T07:04:43.846Z,7.30
2023-04-18T07:07:13.540Z,7.40
2023-04-18T07:09:40.960Z,7.50
2023-04-18T07:12:08.356Z,7.60
2023-04-18T07:14:35.516Z,7.70
2023-04-18T07:17:02.928Z,7.70
2023-04-18T07:19:30.097Z,7.80
2023-04-18T07:21:57.350Z,7.90
2023-04-18T07:24:24.570Z,8.00
2023-04-18T07:26:54.785Z,8.10
2023-04-18T07:29:26.211Z,8.20
2023-04-18T07:31:53.594Z,8.30
2023-04-18T07:34:22.329Z,8.30
2023-04-18T07:36:52.276Z,8.30
2023-04-18T07:39:19.470Z,8.40
2023-04-18T07:41:48.802Z,8.50
2023-04-18T07:44:18.613Z,8.60
2023-04-18T07:46:58.031Z,8.70
2023-04-18T07:49:26.622Z,8.80
2023-04-18T07:51:54.118Z,8.80
2023-04-18T07:54:47.125Z,8.90
2023-04-18T07:57:23.533Z,9.00
2023-04-18T07:59:54.070Z,9.20
2023-04-18T08:02:27.346Z,9.30
2023-04-18T08:04:57.398Z,9.30
2023-04-18T08:07:37.055Z,9.30
2023-04-18T08:10:27.219Z,9.30
2023-04-18T08:12:54.720Z,9.20
2023-04-18T08:15:32.983Z,9.20
2023-04-18T08:18:01.322Z,9.20
2023-04-18T08:23:24.665Z,9.20
2023-04-18T08:26:45.092Z,9.20
2023-04-18T08:29:20.781Z,9.20
2023-04-18T08:31:48.426Z,9.20
2023-04-18T08:34:15.827Z,9.30
2023-04-18T08:36:42.993Z,9.30
2023-04-18T08:39:23.676Z,9.40
2023-04-18T08:42:13.574Z,9.40
2023-04-18T08:44:41.844Z,9.30
2023-04-18T08:49:52.444Z,9.30
2023-04-18T08:52:40.537Z,9.30
2023-04-18T08:55:13.295Z,9.40
2023-04-18T08:57:40.736Z,9.40
2023-04-18T09:00:19.161Z,9.40
2023-04-18T09:02:55.355Z,9.50
2023-04-18T09:05:24.609Z,9.50
2023-04-18T09:08:52.173Z,9.50
2023-04-18T09:11:34.754Z,9.70
2023-04-18T09:14:38.077Z,9.70
2023-04-18T09:17:06.754Z,9.90
2023-04-18T09:19:34.267Z,9.90
2023-04-18T09:22:04.760Z,10.00
2023-04-18T09:24:32.382Z,10.10
2023-04-18T09:27:00.360Z,10.20
2023-04-18T09:29:49.717Z,10.30
2023-04-18T09:35:26.896Z,10.40
2023-04-18T09:37:54.303Z,10.40
2023-04-18T09:40:22.104Z,10.40
2023-04-18T09:43:01.333Z,10.40
2023-04-18T09:45:30.133Z,10.40
2023-04-18T09:47:58.808Z,10.50
2023-04-18T09:50:26.327Z,10.50
2023-04-18T09:52:56.293Z,10.50
2023-04-18T09:55:23.782Z,10.60
2023-04-18T09:57:53.470Z,10.60
2023-04-18T10:00:25.107Z,10.70
2023-04-18T10:06:48.268Z,10.70
2023-04-18T10:09:16.535Z,10.70
2023-04-18T10:11:51.372Z,10.80
2023-04-18T10:14:38.492Z,10.80
2023-04-18T10:17:06.617Z,10.80
2023-04-18T10:19:33.962Z,10.80
2023-04-18T10:22:02.212Z,10.80
2023-04-18T10:24:49.932Z,10.90
2023-04-18T10:27:18.155Z,11.00
2023-04-18T10:29:50.955Z,11.10
2023-04-18T10:32:27.383Z,11.20
2023-04-18T10:34:54.904Z,11.20
2023-04-18T10:37:22.296Z,11.20
2023-04-18T10:39:52.969Z,11.30
2023-04-18T10:42:40.076Z,11.40
2023-04-18T10:45:32.694Z,11.50
2023-04-18T10:48:32.886Z,11.50
2023-04-18T10:51:20.884Z,11.50
2023-04-18T10:53:58.164Z,11.40
2023-04-18T10:56:26.461Z,11.40
2023-04-18T10:58:56.856Z,11.40
2023-04-18T11:02:23.494Z,11.40
2023-04-18T11:04:51.717Z,11.50
2023-04-18T11:07:32.284Z,11.50
2023-04-18T11:09:59.542Z,11.60
2023-04-18T11:12:31.658Z,11.60
2023-04-18T11:14:59.345Z,11.60
2023-04-18T11:17:33.860Z,11.70
2023-04-18T11:20:17.643Z,11.70
2023-04-18T11:23:01.115Z,11.70
2023-04-18T11:25:35.777Z,11.80
2023-04-18T11:28:07.133Z,11.90
2023-04-18T11:30:39.179Z,11.90
2023-04-18T11:33:11.955Z,11.90
2023-04-18T11:35:40.850Z,11.90
2023-04-18T11:38:14.405Z,11.90
2023-04-18T11:40:51.431Z,11.90
2023-04-18T11:43:24.206Z,12.00
2023-04-18T11:46:00.018Z,12.10
2023-04-18T11:48:41.996Z,12.20
2023-04-18T11:51:30.526Z,12.30
2023-04-18T11:53:57.846Z,12.30
2023-04-18T11:56:25.904Z,12.40
2023-04-18T11:58:53.418Z,12.50
2023-04-18T12:01:25.738Z,12.40
2023-04-18T12:04:07.379Z,12.40
2023-04-18T12:06:52.797Z,12.30
2023-04-18T12:09:22.778Z,12.30
2023-04-18T12:12:01.118Z,12.30
2023-04-18T12:14:28.807Z,12.40
2023-04-18T12:16:59.597Z,12.40
2023-04-18T12:19:28.471Z,12.40
2023-04-18T12:21:57.130Z,12.40
2023-04-18T12:24:25.477Z,12.40
2023-04-18T12:26:53.551Z,12.40
2023-04-18T12:29:20.769Z,12.40
2023-04-18T12:31:48.279Z,12.40
2023-04-18T12:34:15.876Z,12.50
2023-04-18T12:36:43.649Z,12.40
2023-04-18T12:39:10.949Z,12.50
2023-04-18T12:41:38.357Z,12.70
2023-04-18T12:44:06.878Z,12.90
2023-04-18T12:46:34.613Z,12.90
2023-04-18T12:49:02.287Z,13.00
2023-04-18T12:51:29.612Z,13.10
2023-04-18T12:53:57.910Z,13.10
2023-04-18T12:56:25.071Z,13.20
2023-04-18T12:58:52.793Z,13.30
2023-04-18T13:01:20.342Z,13.30
2023-04-18T13:03:56.772Z,13.30
2023-04-18T13:06:32.310Z,13.20
2023-04-18T13:08:59.595Z,13.20
2023-04-18T13:11:28.801Z,13.30
2023-04-18T13:13:56.000Z,13.50
2023-04-18T13:16:23.457Z,13.70
2023-04-18T13:18:50.819Z,13.90
2023-04-18T13:21:18.958Z,13.90
2023-04-18T13:23:46.842Z,13.90
2023-04-18T13:26:15.176Z,13.90
2023-04-18T13:28:42.542Z,13.80
2023-04-18T13:31:09.777Z,13.80
2023-04-18T13:33:36.904Z,13.70
2023-04-18T13:36:04.260Z,13.70
2023-04-18T13:38:31.917Z,13.60
2023-04-18T13:41:11.383Z,13.60
2023-04-18T13:43:39.873Z,13.60
2023-04-18T13:46:07.089Z,13.50
2023-04-18T13:48:34.363Z,13.50
2023-04-18T13:51:02.915Z,13.50
2023-04-18T13:53:31.261Z,13.50
2023-04-18T13:55:58.904Z,13.50
2023-04-18T13:58:26.177Z,13.60
2023-04-18T14:00:55.378Z,13.60
2023-04-18T14:03:23.278Z,13.60
2023-04-18T14:05:50.673Z,13.70
2023-04-18T14:08:17.975Z,13.70
2023-04-18T14:10:45.121Z,13.60
2023-04-18T14:13:12.335Z,13.70
2023-04-18T14:15:42.201Z,13.80
2023-04-18T14:18:09.529Z,13.90
2023-04-18T14:20:37.325Z,14.10
2023-04-18T14:23:04.759Z,14.20
2023-04-18T14:25:32.134Z,14.40
2023-04-18T14:28:13.597Z,14.70
2023-04-18T14:30:41.225Z,14.90
2023-04-18T14:33:10.031Z,15.00
2023-04-18T14:35:40.562Z,15.00
2023-04-18T14:38:07.992Z,15.00
2023-04-18T14:40:35.603Z,15.00
2023-04-18T14:43:03.757Z,15.00
2023-04-18T14:45:34.809Z,15.00
2023-04-18T14:48:04.593Z,14.90
2023-04-18T14:50:31.995Z,14.70
2023-04-18T14:52:59.904Z,14.50
2023-04-18T14:55:30.025Z,14.40
2023-04-18T14:57:57.266Z,14.30
2023-04-18T15:00:24.458Z,14.30
2023-04-18T15:02:51.919Z,14.20
2023-04-18T15:05:20.761Z,14.20
2023-04-18T15:07:48.088Z,14.00
2023-04-18T15:10:15.544Z,14.00
2023-04-18T15:12:43.002Z,14.00
2023-04-18T15:15:10.914Z,14.00
2023-04-18T15:17:39.414Z,13.90
2023-04-18T15:20:09.200Z,13.90
2023-04-18T15:22:37.270Z,13.80
2023-04-18T15:25:05.806Z,13.90
2023-04-18T15:27:33.155Z,13.90
2023-04-18T15:30:00.754Z,13.90
2023-04-18T15:32:28.135Z,13.90
2023-04-18T15:34:55.783Z,13.80
2023-04-18T15:37:23.821Z,13.80
2023-04-18T15:39:51.797Z,13.80
2023-04-18T15:42:22.262Z,13.70
2023-04-18T15:44:50.287Z,13.80
2023-04-18T15:47:17.385Z,13.70
2023-04-18T15:49:46.441Z,13.80
2023-04-18T15:52:16.175Z,13.80
2023-04-18T15:54:44.144Z,13.80
2023-04-18T15:57:12.087Z,13.80
2023-04-18T15:59:48.666Z,13.80
2023-04-18T16:02:15.928Z,13.80
2023-04-18T16:04:46.165Z,13.80
2023-04-18T16:07:13.728Z,13.80
2023-04-18T16:09:41.206Z,13.80
2023-04-18T16:12:09.461Z,13.80
2023-04-18T16:14:36.742Z,13.90
2023-04-18T16:17:04.020Z,13.90
2023-04-18T16:19:38.626Z,13.90
2023-04-18T16:22:07.321Z,13.90
2023-04-18T16:24:34.656Z,13.80
2023-04-18T16:27:02.033Z,13.80
2023-04-18T16:29:29.581Z,13.80
2023-04-18T16:31:56.986Z,13.70
2023-04-18T16:34:24.505Z,13.70
2023-04-18T16:36:55.595Z,13.70
2023-04-18T16:39:23.474Z,13.70
2023-04-18T16:41:51.519Z,13.60
2023-04-18T16:44:19.642Z,13.50
2023-04-18T16:46:48.585Z,13.40
2023-04-18T16:49:16.424Z,13.40
2023-04-18T16:51:46.789Z,13.30
2023-04-18T16:54:14.671Z,13.30
2023-04-18T16:56:44.988Z,13.30
2023-04-18T16:59:12.456Z,13.20
2023-04-18T17:01:40.319Z,13.20
2023-04-18T17:04:08.484Z,13.10
2023-04-18T17:06:40.868Z,13.10
2023-04-18T17:09:09.394Z,13.00
2023-04-18T17:11:39.747Z,12.90
2023-04-18T17:14:21.709Z,12.80
2023-04-18T17:16:50.665Z,12.70
2023-04-18T17:19:19.441Z,12.70
2023-04-18T17:21:47.018Z,12.70
2023-04-18T17:24:14.549Z,12.70
2023-04-18T17:26:42.115Z,12.70
2023-04-18T17:29:09.626Z,12.60
2023-04-18T17:31:37.162Z,12.60
2023-04-18T17:34:04.491Z,12.60
2023-04-18T17:36:32.038Z,12.50
2023-04-18T17:39:06.806Z,12.40
2023-04-18T17:41:41.406Z,12.30
2023-04-18T17:44:13.932Z,12.30
2023-04-18T17:46:41.443Z,12.20
2023-04-18T17:49:09.260Z,12.20
2023-04-18T17:51:41.192Z,12.20
2023-04-18T17:54:13.786Z,12.10
2023-04-18T17:56:41.330Z,12.10
2023-04-18T17:59:10.226Z,12.00
2023-04-18T18:01:37.996Z,12.00
2023-04-18T18:04:05.543Z,11.90
2023-04-18T18:06:32.716Z,11.90
2023-04-18T18:08:59.930Z,11.90
2023-04-18T18:11:36.381Z,11.80
2023-04-18T18:14:04.049Z,11.80
2023-04-18T18:16:31.385Z,11.70
2023-04-18T18:18:59.182Z,11.70
2023-04-18T18:21:28.752Z,11.60
2023-04-18T18:23:56.136Z,11.60
2023-04-18T18:26:24.301Z,11.50
2023-04-18T18:28:54.426Z,11.50
2023-04-18T18:31:25.107Z,11.50
2023-04-18T18:33:53.017Z,11.40
2023-04-18T18:36:20.529Z,11.40
2023-04-18T18:38:47.646Z,11.30
2023-04-18T18:41:15.409Z,11.20
2023-04-18T18:43:42.612Z,11.20
2023-04-18T18:46:09.967Z,11.10
2023-04-18T18:48:39.618Z,11.10
2023-04-18T18:51:06.940Z,11.00
2023-04-18T18:53:34.267Z,11.00
2023-04-18T18:56:02.555Z,10.90
2023-04-18T18:58:30.026Z,10.90
2023-04-18T19:00:57.853Z,10.80
2023-04-18T19:03:26.122Z,10.80
2023-04-18T19:05:55.199Z,10.70
2023-04-18T19:08:22.529Z,10.70
2023-04-18T19:10:51.095Z,10.60
2023-04-18T19:13:22.922Z,10.60
2023-04-18T19:15:53.232Z,10.50
2023-04-18T19:18:21.733Z,10.50
2023-04-18T19:20:50.860Z,10.50
2023-04-18T19:23:19.706Z,10.40
2023-04-18T19:25:47.757Z,10.40
2023-04-18T19:28:15.930Z,10.40
2023-04-18T19:30:43.579Z,10.30
2023-04-18T19:33:11.194Z,10.30
2023-04-18T19:35:38.714Z,10.20
2023-04-18T19:38:06.468Z,10.20
2023-04-18T19:40:34.037Z,10.10
2023-04-18T19:43:01.294Z,10.10
2023-04-18T19:45:33.266Z,10.10
2023-04-18T19:48:01.038Z,10.10
2023-04-18T19:50:28.790Z,10.00
2023-04-18T19:52:56.471Z,10.00
2023-04-18T19:55:24.040Z,9.90
2023-04-18T19:57:57.639Z,9.90
2023-04-18T20:00:25.541Z,9.80
2023-04-18T20:02:53.821Z,9.80
2023-04-18T20:05:21.584Z,9.70
2023-04-18T20:07:49.105Z,9.70
2023-04-18T20:10:19.782Z,9.70
2023-04-18T20:12:48.856Z,9.60
2023-04-18T20:15:17.368Z,9.60
2023-04-18T20:17:44.779Z,9.50
2023-04-18T20:20:12.861Z,9.40
2023-04-18T20:22:42.122Z,9.40
2023-04-18T20:25:09.577Z,9.30
2023-04-18T20:27:36.813Z,9.30
2023-04-18T20:30:04.915Z,9.30
2023-04-18T20:32:32.938Z,9.20
2023-04-18T20:35:00.281Z,9.20
2023-04-18T20:37:28.083Z,9.20
2023-04-18T20:39:56.046Z,9.10
2023-04-18T20:42:23.894Z,9.10
2023-04-18T20:44:51.808Z,9.10
2023-04-18T20:47:19.012Z,9.00
2023-04-18T20:49:47.946Z,9.00
2023-04-18T20:52:15.759Z,8.90
2023-04-18T20:54:43.549Z,8.90
2023-04-18T20:57:11.302Z,8.80
2023-04-18T20:59:38.695Z,8.80
2023-04-18T21:02:08.492Z,8.80
2023-04-18T21:04:35.975Z,8.70
2023-04-18T21:07:04.689Z,8.70
2023-04-18T21:09:36.596Z,8.70
2023-04-18T21:12:05.703Z,8.60
2023-04-18T21:14:33.008Z,8.60
2023-04-18T21:17:01.014Z,8.60
2023-04-18T21:19:28.615Z,8.60
2023-04-18T21:21:59.869Z,8.60
2023-04-18T21:24:27.220Z,8.50
2023-04-18T21:26:59.673Z,8.50
2023-04-18T21:29:27.391Z,8.50
2023-04-18T21:31:55.539Z,8.40
2023-04-18T21:34:27.398Z,8.30
2023-04-18T21:36:59.172Z,8.30
2023-04-18T21:42:56.064Z,8.20
2023-04-18T21:45:24.418Z,8.20
2023-04-18T21:47:52.814Z,8.10
2023-04-18T21:50:20.633Z,8.10
2023-04-18T21:52:48.230Z,8.10
2023-04-18T21:55:16.240Z,8.00
2023-04-18T21:57:44.184Z,8.00
2023-04-18T22:00:13.444Z,8.00
2023-04-18T22:02:41.162Z,7.90
2023-04-18T22:05:09.417Z,7.90
2023-04-18T22:07:54.377Z,7.90
2023-04-18T22:10:25.551Z,7.90
2023-04-18T22:12:54.642Z,7.80
2023-04-18T22:15:22.407Z,7.80
2023-04-18T22:17:50.860Z,7.70
2023-04-18T22:20:18.964Z,7.70
2023-04-18T22:22:50.625Z,7.70
2023-04-18T22:25:18.998Z,7.60
2023-04-18T22:27:46.811Z,7.70
2023-04-18T22:30:14.880Z,7.60
2023-04-18T22:32:42.300Z,7.60
2023-04-18T22:35:10.092Z,7.60
2023-04-18T22:37:37.426Z,7.60
2023-04-18T22:40:08.897Z,7.50
2023-04-18T22:42:38.581Z,7.50
2023-04-18T22:45:07.976Z,7.50
2023-04-18T22:47:35.291Z,7.50
2023-04-18T22:50:05.049Z,7.50
2023-04-18T22:52:32.409Z,7.40
2023-04-18T22:54:59.540Z,7.40
2023-04-18T22:57:26.926Z,7.40
2023-04-18T22:59:54.221Z,7.40
2023-04-18T23:02:21.681Z,7.40
2023-04-18T23:04:50.006Z,7.40
2023-04-18T23:07:17.462Z,7.30
2023-04-18T23:09:44.636Z,7.30
2023-04-18T23:12:11.923Z,7.20
2023-04-18T23:14:39.261Z,7.20
2023-04-18T23:17:06.713Z,7.20
2023-04-18T23:19:34.216Z,7.20
2023-04-18T23:22:01.423Z,7.20
2023-04-18T23:24:30.447Z,7.10
2023-04-18T23:26:58.652Z,7.10
2023-04-18T23:29:26.117Z,7.10
2023-04-18T23:31:53.485Z,7.00
2023-04-18T23:34:20.941Z,7.10
2023-04-18T23:36:48.341Z,7.00
2023-04-18T23:39:18.203Z,7.00
2023-04-18T23:41:46.364Z,7.00
2023-04-18T23:44:14.253Z,6.90
2023-04-18T23:46:41.872Z,6.90
2023-04-18T23:49:09.286Z,6.90
2023-04-18T23:51:36.614Z,6.90
2023-04-18T23:54:04.173Z,6.90
2023-04-18T23:56:31.807Z,6.90
2023-04-18T23:58:59.237Z,6.90
